Time;durP1;ratioP1;P1;durP2;ratioP2;P2;SDS_P1;SDS_P2;PMS_P1;PMS_P2;Temp;Humidity;BMP_temperature;BMP_pressure;BME280_temperature;BME280_humidity;BME280_pressure;Samples;Min_cycle;Max_cycle;Signal;HPM_P1;HPM_P2
2022/08/06 00:01:50;;;;;;;1.33;1.08;;;17.10;99.90;;;;;;4954530;29;20027;-60
2022/08/06 00:04:16;;;;;;;2.08;1.20;;;17.10;99.90;;;;;;4955416;28;20119;-60
2022/08/06 00:06:42;;;;;;;2.15;1.10;;;16.90;99.90;;;;;;4954648;29;20028;-58
2022/08/06 00:09:07;;;;;;;1.17;1.00;;;16.90;99.90;;;;;;4955388;28;20102;-59
2022/08/06 00:11:33;;;;;;;2.13;1.10;;;17.00;99.90;;;;;;4954501;29;20074;-60
2022/08/06 00:13:59;;;;;;;2.78;0.93;;;17.00;99.90;;;;;;4955596;28;20031;-60
2022/08/06 00:16:25;;;;;;;6.03;1.42;;;17.00;99.90;;;;;;4954059;29;20028;-60
2022/08/06 00:18:50;;;;;;;2.80;1.45;;;17.00;99.90;;;;;;4954774;29;20106;-59
2022/08/06 00:21:17;;;;;;;1.88;1.10;;;17.00;99.90;;;;;;4953991;29;20031;-60
2022/08/06 00:23:43;;;;;;;2.00;1.13;;;17.00;99.90;;;;;;4955477;28;20110;-58
2022/08/06 00:26:09;;;;;;;1.50;1.30;;;16.80;99.90;;;;;;4955174;28;20024;-60
2022/08/06 00:28:35;;;;;;;2.00;1.40;;;16.80;99.90;;;;;;4959719;28;20497;-58
2022/08/06 00:31:03;;;;;;;1.25;1.15;;;16.70;99.90;;;;;;4960773;28;20054;-60
2022/08/06 00:33:28;;;;;;;1.08;0.93;;;16.60;99.90;;;;;;4962052;28;20027;-59
2022/08/06 00:35:54;;;;;;;4.18;1.30;;;16.60;99.90;;;;;;4960353;29;20050;-60
2022/08/06 00:38:20;;;;;;;1.73;0.85;;;16.50;99.90;;;;;;4960289;29;20039;-55
2022/08/06 00:40:46;;;;;;;1.95;1.20;;;16.40;99.90;;;;;;4960271;29;20031;-54
2022/08/06 00:43:12;;;;;;;2.60;1.60;;;16.30;99.90;;;;;;4960123;29;20110;-55
2022/08/06 00:45:38;;;;;;;2.30;1.77;;;16.30;99.90;;;;;;4961302;29;20054;-54
2022/08/06 00:48:04;;;;;;;1.70;1.33;;;16.20;99.90;;;;;;4961599;28;20023;-60
2022/08/06 00:50:31;;;;;;;3.25;1.20;;;16.20;99.90;;;;;;4960374;28;20086;-56
2022/08/06 00:52:58;;;;;;;1.50;1.10;;;16.30;99.90;;;;;;4960462;28;20035;-55
2022/08/06 00:55:24;;;;;;;1.88;1.33;;;16.20;99.90;;;;;;4960678;28;20122;-55
2022/08/06 00:57:50;;;;;;;7.50;1.73;;;16.30;99.90;;;;;;4961435;28;20372;-60
2022/08/06 01:00:16;;;;;;;3.35;1.20;;;16.20;99.90;;;;;;4960044;29;20033;-56
2022/08/06 01:02:42;;;;;;;1.30;1.20;;;16.00;99.90;;;;;;4961393;28;20034;-53
2022/08/06 01:05:08;;;;;;;1.60;1.15;;;16.00;99.90;;;;;;4960246;29;20035;-59
2022/08/06 01:07:33;;;;;;;3.08;1.17;;;16.00;99.90;;;;;;4960010;28;20039;-57
2022/08/06 01:09:59;;;;;;;1.67;1.58;;;16.10;99.90;;;;;;4960294;29;20031;-58
2022/08/06 01:12:26;;;;;;;3.03;1.10;;;16.10;99.90;;;;;;4961317;28;20023;-55
2022/08/06 01:14:52;;;;;;;1.25;1.05;;;16.00;99.90;;;;;;4959986;29;20027;-56
2022/08/06 01:17:24;;;;;;;1.50;1.00;;;15.90;99.90;;;;;;4960119;29;20030;-60
2022/08/06 01:19:58;;;;;;;1.80;1.00;;;15.90;99.90;;;;;;4959951;28;20019;-54
2022/08/06 01:22:43;;;;;;;2.08;1.05;;;15.90;99.90;;;;;;4961243;28;20038;-57
2022/08/06 01:25:24;;;;;;;4.25;1.20;;;15.90;99.90;;;;;;4961712;28;20031;-57
2022/08/06 01:28:04;;;;;;;4.55;1.38;;;15.90;99.90;;;;;;4961362;28;20115;-53
2022/08/06 01:30:37;;;;;;;1.80;1.10;;;16.00;99.90;;;;;;4961074;28;20057;-58
2022/08/06 01:33:27;;;;;;;1.15;1.05;;;15.90;99.90;;;;;;4959988;28;20031;-60
2022/08/06 01:35:56;;;;;;;4.07;1.13;;;15.60;99.90;;;;;;4960078;29;20059;-58
2022/08/06 01:38:53;;;;;;;4.03;1.10;;;15.40;99.90;;;;;;4958708;28;20073;-56
2022/08/06 01:41:38;;;;;;;4.30;1.15;;;15.50;99.90;;;;;;4952715;29;20046;-56
2022/08/06 01:44:10;;;;;;;4.38;1.55;;;15.70;99.90;;;;;;4956931;29;20027;-58
2022/08/06 01:46:39;;;;;;;3.28;1.00;;;15.60;99.90;;;;;;4958162;28;20382;-54
2022/08/06 01:49:08;;;;;;;1.05;1.00;;;15.60;99.90;;;;;;4957864;28;20023;-56
2022/08/06 01:51:35;;;;;;;2.50;1.10;;;15.60;99.90;;;;;;4957674;28;20061;-56
2022/08/06 01:54:03;;;;;;;1.75;0.93;;;15.60;99.90;;;;;;4956522;29;20033;-58
2022/08/06 01:56:32;;;;;;;1.50;1.20;;;15.60;99.90;;;;;;4958155;28;20055;-55
2022/08/06 01:59:00;;;;;;;1.10;1.00;;;15.50;99.90;;;;;;4957660;28;20023;-56
2022/08/06 02:01:29;;;;;;;2.72;1.25;;;15.20;99.90;;;;;;4957661;28;20031;-59
2022/08/06 02:03:56;;;;;;;1.52;1.00;;;15.30;99.90;;;;;;4956356;29;20031;-59
2022/08/06 02:06:27;;;;;;;2.53;1.10;;;15.20;99.90;;;;;;4956359;28;20031;-59
2022/08/06 02:08:54;;;;;;;9.52;4.47;;;15.30;99.90;;;;;;4957531;28;20019;-58
2022/08/06 02:11:20;;;;;;;4.65;1.30;;;15.20;99.90;;;;;;4956570;29;20059;-60
2022/08/06 02:13:48;;;;;;;2.53;1.40;;;15.20;99.90;;;;;;4957794;28;20034;-60
2022/08/06 02:16:15;;;;;;;2.28;1.40;;;15.40;99.90;;;;;;4957605;28;20414;-58
2022/08/06 02:18:46;;;;;;;1.48;1.10;;;15.20;99.90;;;;;;4960292;28;20058;-56
2022/08/06 02:21:20;;;;;;;1.50;1.05;;;15.20;99.90;;;;;;4959855;29;20037;-58
2022/08/06 02:23:48;;;;;;;2.55;1.38;;;15.30;99.90;;;;;;4957839;28;20356;-59
2022/08/06 02:26:15;;;;;;;1.50;1.10;;;15.10;99.90;;;;;;4957554;28;20024;-57
2022/08/06 02:28:42;;;;;;;3.08;1.23;;;15.10;99.90;;;;;;4957743;28;20031;-58
2022/08/06 02:31:08;;;;;;;1.40;0.93;;;14.90;99.90;;;;;;4956411;29;20025;-59
2022/08/06 02:33:34;;;;;;;2.53;0.88;;;14.70;99.90;;;;;;4957511;28;20110;-59
2022/08/06 02:36:09;;;;;;;1.30;0.80;;;14.80;99.90;;;;;;4956694;29;20069;-60
2022/08/06 02:38:49;;;;;;;2.78;1.00;;;15.00;99.90;;;;;;4957271;28;20031;-58
2022/08/06 02:41:34;;;;;;;2.65;0.95;;;15.00;99.90;;;;;;4957539;28;20109;-56
2022/08/06 02:44:16;;;;;;;2.50;1.10;;;15.00;99.90;;;;;;4957756;29;20037;-58
2022/08/06 02:47:11;;;;;;;0.82;0.80;;;14.90;99.90;;;;;;4955900;29;20487;-59
2022/08/06 02:49:40;;;;;;;1.42;1.00;;;14.80;99.90;;;;;;4953987;28;20031;-58
2022/08/06 02:52:18;;;;;;;1.15;1.08;;;14.90;99.90;;;;;;4956342;28;20386;-54
2022/08/06 02:54:55;;;;;;;1.45;1.00;;;15.10;99.90;;;;;;4957398;28;20415;-55
2022/08/06 02:57:24;;;;;;;1.30;1.20;;;15.00;99.90;;;;;;4957298;28;20027;-58
2022/08/06 02:59:54;;;;;;;1.60;1.08;;;14.90;99.90;;;;;;4956788;28;20030;-54
2022/08/06 03:02:23;;;;;;;1.48;1.27;;;14.80;99.90;;;;;;4955803;29;20030;-58
2022/08/06 03:04:50;;;;;;;1.50;1.25;;;14.70;99.90;;;;;;4956874;28;20041;-53
2022/08/06 03:07:18;;;;;;;1.25;1.00;;;14.70;99.90;;;;;;4955771;29;20031;-59
2022/08/06 03:09:49;;;;;;;2.25;1.20;;;14.60;99.90;;;;;;4955346;29;20031;-54
2022/08/06 03:12:17;;;;;;;1.30;1.10;;;14.70;99.90;;;;;;4955628;28;20027;-54
2022/08/06 03:14:44;;;;;;;2.65;1.05;;;14.70;99.90;;;;;;4955337;28;20042;-54
2022/08/06 03:17:13;;;;;;;3.20;1.20;;;14.60;99.90;;;;;;4955451;29;20505;-53
2022/08/06 03:19:41;;;;;;;2.05;1.25;;;14.50;99.90;;;;;;4956478;28;20023;-56
2022/08/06 03:22:09;;;;;;;1.20;1.10;;;14.40;99.90;;;;;;4956498;28;20031;-55
2022/08/06 03:24:37;;;;;;;2.67;1.35;;;14.40;99.90;;;;;;4956506;28;20031;-53
2022/08/06 03:27:03;;;;;;;2.40;1.20;;;14.30;99.90;;;;;;4955159;29;20027;-59
2022/08/06 03:29:32;;;;;;;2.03;1.17;;;14.20;99.90;;;;;;4955087;29;20055;-57
2022/08/06 03:31:58;;;;;;;2.47;1.30;;;14.10;99.90;;;;;;4955356;29;20394;-57
2022/08/06 03:34:25;;;;;;;1.50;1.25;;;14.20;99.90;;;;;;4954986;29;20037;-56
2022/08/06 03:36:52;;;;;;;1.30;1.20;;;14.20;99.90;;;;;;4955204;29;20035;-53
2022/08/06 03:39:19;;;;;;;2.63;1.20;;;14.20;99.90;;;;;;4954952;29;20073;-54
2022/08/06 03:41:46;;;;;;;2.67;1.10;;;14.20;99.90;;;;;;4955802;28;20035;-59
2022/08/06 03:44:12;;;;;;;2.50;1.13;;;14.10;99.90;;;;;;4954432;28;20031;-57
2022/08/06 03:46:50;;;;;;;1.50;1.23;;;14.20;99.90;;;;;;4954846;29;20118;-56
2022/08/06 03:49:23;;;;;;;2.03;1.15;;;14.40;99.90;;;;;;4956071;28;20027;-55
2022/08/06 03:51:53;;;;;;;1.70;1.17;;;14.30;99.90;;;;;;4954787;28;20094;-58
2022/08/06 03:54:33;;;;;;;1.45;1.00;;;14.30;99.90;;;;;;4955547;28;20027;-53
2022/08/06 03:57:05;;;;;;;1.73;1.20;;;14.30;99.90;;;;;;4955243;29;20031;-57
2022/08/06 03:59:34;;;;;;;3.42;1.52;;;14.30;99.90;;;;;;4954223;29;20035;-56
2022/08/06 04:02:02;;;;;;;2.28;1.08;;;14.20;99.90;;;;;;4955026;28;20522;-56
2022/08/06 04:04:31;;;;;;;1.42;1.05;;;14.30;99.90;;;;;;4955412;28;20035;-56
2022/08/06 04:06:58;;;;;;;3.97;1.48;;;14.30;99.90;;;;;;4954532;29;20027;-56
2022/08/06 04:09:25;;;;;;;4.32;1.40;;;14.20;99.90;;;;;;4954973;29;20455;-57
2022/08/06 04:11:53;;;;;;;3.90;1.40;;;14.20;99.90;;;;;;4955356;28;20371;-55
2022/08/06 04:14:19;;;;;;;1.98;1.30;;;14.30;99.90;;;;;;4954501;29;20474;-57
2022/08/06 04:16:47;;;;;;;3.67;1.40;;;14.40;99.90;;;;;;4954433;29;20105;-57
2022/08/06 04:19:14;;;;;;;3.40;1.63;;;14.40;99.90;;;;;;4954873;29;20027;-57
2022/08/06 04:21:40;;;;;;;4.47;1.50;;;14.30;99.90;;;;;;4954088;29;20119;-57
2022/08/06 04:24:06;;;;;;;1.58;1.30;;;14.10;99.90;;;;;;4955411;28;20102;-57
2022/08/06 04:26:32;;;;;;;1.83;1.30;;;14.10;99.90;;;;;;4955469;28;20094;-55
2022/08/06 04:29:01;;;;;;;1.58;1.40;;;14.00;99.90;;;;;;4955268;28;20024;-58
2022/08/06 04:31:29;;;;;;;2.15;1.55;;;13.90;99.90;;;;;;4954643;29;20030;-59
2022/08/06 04:33:56;;;;;;;3.10;1.70;;;14.10;99.90;;;;;;4954002;29;20024;-55
2022/08/06 04:36:22;;;;;;;1.38;1.20;;;14.30;99.90;;;;;;4954045;28;20035;-53
2022/08/06 04:38:48;;;;;;;4.82;1.83;;;14.40;99.90;;;;;;4955155;28;20110;-52
2022/08/06 04:41:14;;;;;;;1.98;1.52;;;14.70;99.90;;;;;;4955497;28;20111;-55
2022/08/06 04:43:40;;;;;;;2.30;1.42;;;14.90;99.90;;;;;;4955147;28;20102;-53
2022/08/06 04:46:08;;;;;;;3.78;1.40;;;15.30;99.90;;;;;;4955214;28;20019;-56
2022/08/06 04:48:34;;;;;;;3.10;1.15;;;15.60;99.90;;;;;;4953799;29;20066;-58
2022/08/06 04:51:05;;;;;;;2.70;1.55;;;15.90;99.90;;;;;;4954005;29;20062;-54
2022/08/06 04:53:39;;;;;;;1.80;1.15;;;16.40;99.90;;;;;;4954470;29;20027;-57
2022/08/06 04:56:08;;;;;;;3.25;1.40;;;16.90;99.90;;;;;;4955193;28;20051;-54
2022/08/06 04:58:34;;;;;;;2.85;1.40;;;17.30;99.90;;;;;;4954945;28;20027;-56
2022/08/06 05:01:01;;;;;;;1.55;1.35;;;17.60;99.90;;;;;;4953860;29;20031;-58
2022/08/06 05:03:27;;;;;;;2.40;1.50;;;18.00;99.90;;;;;;4954972;28;20091;-56
2022/08/06 05:06:03;;;;;;;3.72;1.33;;;18.30;99.90;;;;;;4954070;29;20466;-56
2022/08/06 05:08:31;;;;;;;2.83;1.20;;;18.80;99.90;;;;;;4956082;28;20074;-57
2022/08/06 05:11:02;;;;;;;3.47;1.27;;;19.20;99.90;;;;;;4957390;29;20102;-59
2022/08/06 05:13:36;;;;;;;4.18;1.50;;;19.70;99.90;;;;;;4954590;28;20028;-60
2022/08/06 05:16:06;;;;;;;2.63;1.48;;;20.10;99.90;;;;;;4958669;28;20046;-61
2022/08/06 05:18:41;;;;;;;3.15;1.17;;;20.50;99.90;;;;;;4958622;28;20078;-58
2022/08/06 05:21:10;;;;;;;3.22;1.40;;;20.80;99.90;;;;;;4958357;29;20114;-58
2022/08/06 05:23:44;;;;;;;5.22;1.70;;;21.10;99.90;;;;;;4956974;28;20024;-61
2022/08/06 05:26:10;;;;;;;4.00;1.50;;;21.30;99.90;;;;;;4958530;28;20023;-60
2022/08/06 05:28:39;;;;;;;3.22;1.80;;;21.40;99.90;;;;;;4957452;29;20031;-61
2022/08/06 05:31:05;;;;;;;5.72;1.60;;;21.80;99.90;;;;;;4958859;28;20019;-60
2022/08/06 05:33:36;;;;;;;3.25;1.60;;;22.10;99.90;;;;;;4957174;29;20031;-60
2022/08/06 05:36:03;;;;;;;3.22;1.30;;;22.60;99.90;;;;;;4957733;29;20058;-61
2022/08/06 05:38:30;;;;;;;4.00;1.60;;;23.10;99.90;;;;;;4956789;29;20034;-60
2022/08/06 05:40:56;;;;;;;2.67;1.30;;;23.60;99.90;;;;;;4956805;29;20035;-61
2022/08/06 05:43:23;;;;;;;3.72;1.42;;;23.80;99.90;;;;;;4957233;29;20042;-61
2022/08/06 05:45:57;;;;;;;2.42;1.02;;;24.10;99.90;;;;;;4958004;28;20478;-62
2022/08/06 05:48:24;;;;;;;4.32;1.17;;;24.30;99.90;;;;;;4956617;29;20037;-60
2022/08/06 05:50:55;;;;;;;1.60;0.85;;;24.90;99.90;;;;;;4958225;28;20027;-62
2022/08/06 05:53:40;;;;;;;3.03;0.90;;;25.40;99.90;;;;;;4956609;29;20035;-62
2022/08/06 05:56:10;;;;;;;1.15;0.90;;;26.00;99.30;;;;;;4957786;28;20023;-60
2022/08/06 05:58:44;;;;;;;0.85;0.70;;;26.20;96.10;;;;;;4957858;28;20475;-62
2022/08/06 06:01:12;;;;;;;1.98;0.60;;;26.40;96.70;;;;;;4956495;29;20028;-62
2022/08/06 06:03:39;;;;;;;2.17;0.80;;;26.60;96.40;;;;;;4956352;29;20402;-62
2022/08/06 06:06:06;;;;;;;1.38;0.63;;;26.60;94.40;;;;;;4957501;28;20020;-63
2022/08/06 06:08:31;;;;;;;1.45;0.70;;;27.20;93.20;;;;;;4956269;29;20031;-62
2022/08/06 06:10:57;;;;;;;0.73;0.70;;;27.50;92.90;;;;;;4956572;29;20030;-62
2022/08/06 06:13:24;;;;;;;2.38;0.55;;;28.10;92.90;;;;;;4957823;29;20066;-63
2022/08/06 06:16:18;;;;;;;3.25;1.10;;;28.70;91.90;;;;;;4956500;29;20024;-63
2022/08/06 06:19:08;;;;;;;1.08;0.70;;;29.10;91.90;;;;;;4957326;28;20020;-61
2022/08/06 06:21:37;;;;;;;1.33;0.70;;;29.00;87.50;;;;;;4957256;28;20034;-62
2022/08/06 06:24:20;;;;;;;1.65;1.17;;;29.00;85.60;;;;;;4955939;29;20037;-62
2022/08/06 06:26:48;;;;;;;1.38;0.90;;;29.00;81.50;;;;;;4956755;28;20023;-62
2022/08/06 06:29:38;;;;;;;0.80;0.57;;;29.10;85.60;;;;;;4957042;28;20086;-63
2022/08/06 06:32:13;;;;;;;2.88;0.73;;;29.80;80.10;;;;;;4956778;29;20027;-62
2022/08/06 06:35:21;;;;;;;3.47;0.75;;;29.40;80.20;;;;;;4955859;29;20031;-62
2022/08/06 06:38:09;;;;;;;2.97;0.73;;;29.00;79.10;;;;;;4957263;28;20402;-62
2022/08/06 06:40:46;;;;;;;7.25;1.02;;;29.50;77.40;;;;;;4955732;29;20063;-61
2022/08/06 06:43:14;;;;;;;2.90;1.08;;;29.60;79.60;;;;;;4955681;29;20035;-61
2022/08/06 06:46:00;;;;;;;2.97;0.80;;;30.00;75.70;;;;;;4956495;29;20034;-62
2022/08/06 06:48:54;;;;;;;0.60;0.60;;;30.50;76.40;;;;;;4955596;29;20034;-62
2022/08/06 06:51:33;;;;;;;1.25;0.45;;;31.00;77.70;;;;;;4956418;29;20044;-62
2022/08/06 06:53:59;;;;;;;1.98;1.05;;;31.90;73.60;;;;;;4955743;29;20122;-62
2022/08/06 06:56:29;;;;;;;3.40;0.90;;;32.20;69.20;;;;;;4955900;28;20530;-62
2022/08/06 06:59:04;;;;;;;1.50;0.80;;;32.10;71.10;;;;;;4956870;28;20034;-62
2022/08/06 07:01:32;;;;;;;3.75;0.80;;;30.90;69.10;;;;;;4955485;29;20402;-61
2022/08/06 07:04:00;;;;;;;2.45;0.80;;;29.50;71.10;;;;;;4956033;29;20038;-58
2022/08/06 07:06:27;;;;;;;3.75;0.80;;;28.40;73.30;;;;;;4956861;28;20070;-60
2022/08/06 07:08:54;;;;;;;3.53;0.82;;;27.60;73.80;;;;;;4956597;28;20474;-61
2022/08/06 07:11:23;;;;;;;4.13;0.90;;;28.00;76.90;;;;;;4955665;29;20054;-62
2022/08/06 07:13:50;;;;;;;1.58;0.70;;;28.20;76.90;;;;;;4955097;29;20121;-62
2022/08/06 07:16:19;;;;;;;2.85;0.75;;;29.30;72.00;;;;;;4956570;28;20386;-61
2022/08/06 07:18:46;;;;;;;2.15;0.60;;;29.00;72.70;;;;;;4956217;28;20029;-61
2022/08/06 07:21:15;;;;;;;3.05;0.70;;;28.60;72.60;;;;;;4956227;28;20039;-60
2022/08/06 07:23:44;;;;;;;2.38;0.70;;;27.80;74.10;;;;;;4956647;28;20031;-62
2022/08/06 07:26:12;;;;;;;4.30;0.68;;;28.10;74.90;;;;;;4956071;28;20027;-62
2022/08/06 07:28:38;;;;;;;1.05;0.80;;;30.00;75.00;;;;;;4954776;29;20447;-62
2022/08/06 07:31:06;;;;;;;2.42;1.23;;;30.80;69.00;;;;;;4955874;28;20051;-62
2022/08/06 07:33:34;;;;;;;1.40;0.57;;;30.20;70.60;;;;;;4955928;28;20076;-62
2022/08/06 07:36:00;;;;;;;3.95;1.10;;;31.00;69.90;;;;;;4955815;28;20030;-60
2022/08/06 07:38:28;;;;;;;2.20;0.68;;;31.90;68.80;;;;;;4954060;29;20038;-62
2022/08/06 07:40:58;;;;;;;2.92;0.80;;;32.20;68.80;;;;;;4954578;29;20032;-61
2022/08/06 07:43:47;;;;;;;;;;;33.30;65.50;;;;;;4955027;29;20063;-62
2022/08/06 07:46:18;;;;;;;1.77;0.65;;;33.60;64.60;;;;;;4954438;29;19965;-62
2022/08/06 07:48:54;;;;;;;1.10;0.63;;;33.90;64.40;;;;;;4955753;28;20019;-62
2022/08/06 07:51:26;;;;;;;1.70;0.70;;;35.00;61.80;;;;;;4955618;28;20031;-60
2022/08/06 07:53:53;;;;;;;2.85;1.02;;;32.80;60.80;;;;;;4954433;28;20104;-62
2022/08/06 07:56:19;;;;;;;0.98;0.80;;;32.60;64.00;;;;;;4954834;29;20474;-62
2022/08/06 07:58:45;;;;;;;2.70;0.93;;;31.40;62.80;;;;;;4955151;29;20031;-62
2022/08/06 08:01:12;;;;;;;2.85;0.80;;;31.50;63.40;;;;;;4955478;28;20035;-62
2022/08/06 08:06:25;;;;;;;1.85;0.80;;;32.50;65.70;;;;;;4955779;29;20038;-64
2022/08/06 08:09:26;;;;;;;2.35;0.73;;;34.20;64.20;;;;;;4954142;29;20020;-61
2022/08/06 08:11:52;;;;;;;2.70;0.90;;;32.10;63.90;;;;;;4954263;29;20062;-62
2022/08/06 08:14:22;;;;;;;2.35;0.60;;;33.80;63.40;;;;;;4954167;28;20077;-64
2022/08/06 08:16:48;;;;;;;4.00;0.70;;;34.60;61.20;;;;;;4954251;28;20031;-63
2022/08/06 08:19:30;;;;;;;3.45;0.93;;;34.80;61.30;;;;;;4955193;28;20035;-63
2022/08/06 08:22:01;;;;;;;3.95;0.80;;;34.80;57.10;;;;;;4955302;28;20093;-63
2022/08/06 08:24:28;;;;;;;1.58;0.60;;;34.80;57.40;;;;;;4955113;28;20054;-63
2022/08/06 08:26:54;;;;;;;1.50;0.70;;;35.70;57.60;;;;;;4955234;28;20498;-63
2022/08/06 08:29:20;;;;;;;1.73;0.77;;;34.50;57.30;;;;;;4953879;29;20107;-63
2022/08/06 08:31:47;;;;;;;1.25;0.63;;;33.60;55.60;;;;;;4955265;28;20031;-62
2022/08/06 08:34:13;;;;;;;3.85;1.20;;;32.60;57.50;;;;;;4955253;28;20056;-63
2022/08/06 08:36:39;;;;;;;4.18;1.33;;;33.20;59.50;;;;;;4954211;28;20139;-63
2022/08/06 08:39:06;;;;;;;2.35;0.70;;;33.20;57.50;;;;;;4954135;29;20035;-63
2022/08/06 08:41:39;;;;;;;3.20;0.65;;;32.00;61.20;;;;;;4955188;28;20038;-63
2022/08/06 08:44:07;;;;;;;3.22;0.95;;;31.90;58.70;;;;;;4955321;28;20078;-63
2022/08/06 08:46:34;;;;;;;4.53;0.90;;;30.20;61.60;;;;;;4955107;28;20031;-63
2022/08/06 08:49:02;;;;;;;1.85;0.60;;;30.20;63.20;;;;;;4956227;28;20024;-63
2022/08/06 08:51:28;;;;;;;2.92;0.88;;;30.80;58.80;;;;;;4958919;28;20027;-63
2022/08/06 08:53:56;;;;;;;4.22;0.70;;;31.00;58.10;;;;;;4958992;28;20028;-63
2022/08/06 08:56:22;;;;;;;1.95;0.50;;;30.10;59.10;;;;;;4957701;29;20027;-63
2022/08/06 08:58:48;;;;;;;4.38;0.68;;;29.40;61.50;;;;;;4957838;28;20030;-63
2022/08/06 09:01:15;;;;;;;5.47;1.08;;;30.10;62.60;;;;;;4958864;28;20062;-61
2022/08/06 09:03:41;;;;;;;2.72;0.70;;;30.60;58.70;;;;;;4957706;29;20027;-63
2022/08/06 09:06:08;;;;;;;2.90;0.50;;;30.40;60.10;;;;;;4957864;29;20470;-63
2022/08/06 09:08:36;;;;;;;2.92;0.70;;;31.00;57.20;;;;;;4957351;29;20051;-63
2022/08/06 09:11:02;;;;;;;1.17;0.73;;;32.00;54.70;;;;;;4958602;28;20568;-62
2022/08/06 09:13:29;;;;;;;1.88;0.82;;;29.60;55.50;;;;;;4958524;28;20027;-62
2022/08/06 09:15:56;;;;;;;1.85;0.60;;;29.20;56.40;;;;;;4958551;28;20068;-60
2022/08/06 09:18:24;;;;;;;1.13;0.57;;;28.00;57.30;;;;;;4958457;28;20162;-61
2022/08/06 09:20:49;;;;;;;0.70;0.40;;;27.90;58.60;;;;;;4957287;28;20034;-63
2022/08/06 09:23:16;;;;;;;0.65;0.30;;;29.00;56.60;;;;;;4957172;29;20024;-63
2022/08/06 09:25:48;;;;;;;1.92;0.57;;;29.50;53.80;;;;;;4957652;29;20019;-64
2022/08/06 09:28:28;;;;;;;3.17;1.05;;;30.90;55.50;;;;;;4957025;29;20490;-63
2022/08/06 09:31:14;;;;;;;1.92;1.33;;;30.80;53.80;;;;;;4958244;28;20026;-61
2022/08/06 09:33:42;;;;;;;3.78;1.20;;;29.40;56.30;;;;;;4957304;29;20081;-63
2022/08/06 09:36:13;;;;;;;1.77;0.73;;;30.10;56.30;;;;;;4956942;29;20062;-63
2022/08/06 09:38:50;;;;;;;1.42;0.70;;;30.60;57.70;;;;;;4958118;28;20027;-63
2022/08/06 09:41:17;;;;;;;1.48;0.70;;;33.00;55.90;;;;;;4957978;29;20126;-64
2022/08/06 09:43:44;;;;;;;3.08;0.60;;;34.20;53.30;;;;;;4958093;28;20082;-63
2022/08/06 09:46:10;;;;;;;3.20;0.70;;;32.70;57.10;;;;;;4957050;29;20030;-64
2022/08/06 09:48:36;;;;;;;2.00;0.80;;;33.50;57.40;;;;;;4958312;28;20028;-63
2022/08/06 09:51:02;;;;;;;2.20;0.60;;;31.60;55.70;;;;;;4957810;29;20039;-63
2022/08/06 09:53:28;;;;;;;1.35;0.65;;;31.50;59.40;;;;;;4957901;28;20031;-64
2022/08/06 09:55:56;;;;;;;6.35;0.88;;;32.50;56.90;;;;;;4957907;28;20034;-63
2022/08/06 09:58:38;;;;;;;1.33;0.63;;;32.70;57.80;;;;;;4957836;28;20087;-64
2022/08/06 10:01:23;;;;;;;0.80;0.65;;;32.40;56.20;;;;;;4956071;28;20032;-63
2022/08/06 10:03:51;;;;;;;0.80;0.45;;;33.70;56.30;;;;;;4956583;28;20038;-63
2022/08/06 10:06:20;;;;;;;3.00;0.80;;;34.40;55.90;;;;;;4956772;29;20028;-63
2022/08/06 10:09:05;;;;;;;3.33;0.70;;;33.10;55.70;;;;;;4957516;28;20023;-63
2022/08/06 10:11:38;;;;;;;1.95;0.70;;;32.30;57.30;;;;;;4956428;29;20024;-63
2022/08/06 10:14:05;;;;;;;3.85;0.65;;;33.10;54.90;;;;;;4957521;28;20059;-61
2022/08/06 10:16:30;;;;;;;1.38;0.82;;;31.50;53.30;;;;;;4956659;29;20501;-63
2022/08/06 10:18:58;;;;;;;2.83;0.65;;;31.20;55.10;;;;;;4940145;29;20027;-63
2022/08/06 10:21:29;;;;;;;3.58;0.90;;;31.80;54.20;;;;;;4957414;28;20058;-62
2022/08/06 10:24:00;;;;;;;3.97;0.65;;;31.50;54.30;;;;;;4956801;29;20027;-63
2022/08/06 10:26:31;;;;;;;0.98;0.70;;;31.90;54.40;;;;;;4956105;29;20058;-63
2022/08/06 10:29:05;;;;;;;0.43;0.38;;;31.80;51.70;;;;;;4957253;28;20482;-63
2022/08/06 10:31:33;;;;;;;1.60;0.50;;;31.50;53.90;;;;;;4956282;29;20023;-63
2022/08/06 10:34:05;;;;;;;1.17;0.82;;;30.00;53.80;;;;;;4955846;29;20156;-63
2022/08/06 10:36:36;;;;;;;2.35;0.65;;;30.00;53.40;;;;;;4957689;28;20042;-63
2022/08/06 10:39:03;;;;;;;1.17;0.43;;;29.90;56.90;;;;;;4955791;29;20031;-63
2022/08/06 10:41:30;;;;;;;1.00;0.45;;;31.10;55.80;;;;;;4955712;29;20030;-63
2022/08/06 10:43:57;;;;;;;2.95;0.57;;;30.30;57.20;;;;;;4955633;29;20031;-62
2022/08/06 10:46:23;;;;;;;2.88;0.88;;;28.80;56.40;;;;;;4955688;28;20055;-62
2022/08/06 10:48:49;;;;;;;3.58;0.73;;;27.80;56.00;;;;;;4956673;29;20023;-62
2022/08/06 10:51:15;;;;;;;0.98;0.40;;;27.00;58.40;;;;;;4957146;28;20031;-60
2022/08/06 10:53:44;;;;;;;1.17;0.63;;;25.80;59.40;;;;;;4955464;29;20119;-58
2022/08/06 10:56:13;;;;;;;2.50;0.55;;;25.40;60.90;;;;;;4955414;28;20027;-60
2022/08/06 10:58:40;;;;;;;1.75;0.82;;;24.80;60.70;;;;;;4956626;28;20027;-60
2022/08/06 11:01:49;;;;;;;0.85;0.32;;;24.70;60.00;;;;;;4955693;29;20027;-60
2022/08/06 11:04:41;;;;;;;3.10;0.40;;;25.20;61.10;;;;;;4955231;29;20031;-60
2022/08/06 11:07:12;;;;;;;1.45;0.43;;;25.20;60.90;;;;;;4956160;29;20102;-60
2022/08/06 11:10:05;;;;;;;6.13;0.77;;;24.50;63.00;;;;;;4955536;29;20095;-60
2022/08/06 11:12:48;;;;;;;1.08;0.40;;;24.70;63.10;;;;;;4956489;28;20102;-60
2022/08/06 11:15:14;;;;;;;1.20;0.30;;;23.90;62.60;;;;;;4956294;28;20110;-60
2022/08/06 11:17:45;;;;;;;3.10;0.68;;;23.90;64.90;;;;;;4956285;28;20102;-62
2022/08/06 11:20:32;;;;;;;0.52;0.30;;;24.20;66.30;;;;;;4955112;28;20042;-62
2022/08/06 11:23:03;;;;;;;0.85;0.40;;;24.80;66.40;;;;;;4956204;28;20034;-62
2022/08/06 11:25:48;;;;;;;;;;;25.20;64.90;;;;;;4956882;28;20023;-61
2022/08/06 11:28:16;;;;;;;0.68;0.40;;;25.10;65.40;;;;;;4954707;28;20358;-61
2022/08/06 11:30:50;;;;;;;1.45;0.40;;;25.40;65.80;;;;;;4954815;28;20023;-60
2022/08/06 11:33:19;;;;;;;5.47;0.60;;;25.10;63.40;;;;;;4956023;28;20140;-62
2022/08/06 11:35:49;;;;;;;1.55;0.45;;;25.30;64.50;;;;;;4955867;28;20035;-60
2022/08/06 11:38:36;;;;;;;4.20;0.70;;;25.10;61.40;;;;;;4956118;28;20027;-59
2022/08/06 11:41:08;;;;;;;1.73;0.30;;;24.50;61.80;;;;;;4956144;29;20501;-60
2022/08/06 11:43:40;;;;;;;1.02;0.22;;;23.80;63.30;;;;;;4955758;28;20035;-57
2022/08/06 11:46:18;;;;;;;0.90;0.35;;;24.30;65.50;;;;;;4955783;28;20034;-62
2022/08/06 11:48:59;;;;;;;0.93;0.30;;;24.10;65.40;;;;;;4955673;28;20026;-61
2022/08/06 11:51:43;;;;;;;1.60;0.50;;;24.30;64.80;;;;;;4954660;29;20513;-62
2022/08/06 11:54:32;;;;;;;1.95;0.47;;;24.70;63.90;;;;;;4955647;28;20027;-62
2022/08/06 11:57:01;;;;;;;1.25;0.28;;;25.10;65.80;;;;;;4955305;28;20488;-62
2022/08/06 11:59:34;;;;;;;1.38;0.30;;;25.20;63.50;;;;;;4954759;29;20023;-62
2022/08/06 12:02:02;;;;;;;2.67;0.35;;;24.80;60.10;;;;;;4955580;28;20114;-62
2022/08/06 12:04:38;;;;;;;1.50;0.40;;;24.00;61.70;;;;;;4955585;28;20023;-60
2022/08/06 12:07:26;;;;;;;1.83;0.57;;;23.60;63.20;;;;;;4955597;28;20063;-60
2022/08/06 12:10:06;;;;;;;2.72;0.60;;;23.60;61.80;;;;;;4955057;29;20023;-62
2022/08/06 12:12:42;;;;;;;1.17;0.40;;;23.50;64.30;;;;;;4955578;28;20028;-62
2022/08/06 12:15:19;;;;;;;0.60;0.20;;;23.50;66.30;;;;;;4954994;29;20027;-62
2022/08/06 12:17:54;;;;;;;1.35;0.32;;;23.80;66.70;;;;;;4954578;29;20027;-62
2022/08/06 12:20:39;;;;;;;0.80;0.40;;;24.10;63.60;;;;;;4954420;29;20118;-62
2022/08/06 12:23:13;;;;;;;0.90;0.30;;;23.80;64.00;;;;;;4954804;28;20063;-62
2022/08/06 12:25:43;;;;;;;1.60;0.50;;;23.90;64.90;;;;;;4954981;29;20023;-62
2022/08/06 12:28:11;;;;;;;0.65;0.35;;;23.90;66.00;;;;;;4954002;29;20023;-62
2022/08/06 12:30:49;;;;;;;0.95;0.50;;;24.00;62.00;;;;;;4955216;28;20023;-61
2022/08/06 12:33:16;;;;;;;0.30;0.30;;;23.20;63.70;;;;;;4955268;28;20023;-62
2022/08/06 12:35:56;;;;;;;0.32;0.30;;;23.30;64.40;;;;;;4955226;28;20132;-61
2022/08/06 12:38:27;;;;;;;1.40;0.50;;;23.30;63.70;;;;;;4953982;29;20023;-61
2022/08/06 12:47:33;;;;;;;0.52;0.50;;;23.30;63.90;;;;;;4955208;29;19914;-61
2022/08/06 12:49:58;;;;;;;0.28;0.28;;;23.20;62.10;;;;;;4954005;29;20035;-61
2022/08/06 12:52:24;;;;;;;0.22;0.22;;;23.00;63.00;;;;;;4955002;28;20043;-61
2022/08/06 12:54:50;;;;;;;2.85;0.60;;;23.10;63.40;;;;;;4955055;28;20102;-62
2022/08/06 12:57:27;;;;;;;0.77;0.43;;;23.20;63.70;;;;;;4953836;28;20059;-61
2022/08/06 12:59:54;;;;;;;1.30;0.40;;;23.50;64.20;;;;;;4953741;29;20035;-61
2022/08/06 13:02:23;;;;;;;1.80;0.30;;;23.70;66.80;;;;;;4954174;29;20031;-62
2022/08/06 13:04:52;;;;;;;1.80;0.40;;;23.80;63.10;;;;;;4954828;28;20028;-62
2022/08/06 13:07:19;;;;;;;0.60;0.30;;;23.70;64.10;;;;;;4954610;29;20030;-61
2022/08/06 13:09:46;;;;;;;3.92;0.40;;;23.60;65.50;;;;;;4953928;29;20028;-61
2022/08/06 13:12:18;;;;;;;2.38;0.40;;;23.50;62.20;;;;;;4955175;28;20028;-62
2022/08/06 13:14:59;;;;;;;0.40;0.22;;;23.30;63.70;;;;;;4953654;29;20082;-62
2022/08/06 13:17:25;;;;;;;1.40;0.40;;;23.60;64.40;;;;;;4954050;29;20028;-61